MEA998 OLBA-OLBA
Flight info
| Callsign | MEA998 |
|---|---|
| Flight time | 0h 47m |
| Altitude | 6000 |
| Route | 335026N0352842E DCT 335356N0352741E 335450N0352519E 335311N0352413E 335031N0352512E 334648N0352623E 334754N0352852E DCT 334937N0353010E |
| Aircraft | A320/M-SDE3FGHIRWY/LB1 |
Departure
| Time | 2026-05-07 14:00 |
|---|---|
| Airport | Beirut Rafic Hariri International Airport (OLBA) |
Arrival
| Time | 2026-05-07 14:47 |
|---|---|
| Airport | Beirut Rafic Hariri International Airport (OLBA) |
| Time | Latitude | Longitude | Altitude | Speed | Heading |
|---|---|---|---|---|---|
| 2026-05-07 13:47 | 33.82264 | 35.49374 | 17 ft | 0 kts | 16° |
| 2026-05-07 13:50 | 33.82248 | 35.49369 | 17 ft | 4 kts | 16° |
| 2026-05-07 13:50 | 33.82222 | 35.49360 | 20 ft | 2 kts | 16° |
| 2026-05-07 13:50 | 33.82202 | 35.49351 | 20 ft | 4 kts | 41° |
| 2026-05-07 13:50 | 33.82188 | 35.49326 | 18 ft | 4 kts | 82° |
| 2026-05-07 13:51 | 33.82188 | 35.49304 | 16 ft | 0 kts | 104° |
| 2026-05-07 13:54 | 33.82186 | 35.49315 | 17 ft | 4 kts | 104° |
| 2026-05-07 13:54 | 33.82181 | 35.49339 | 17 ft | 5 kts | 104° |
| 2026-05-07 13:54 | 33.82163 | 35.49398 | 17 ft | 10 kts | 116° |
| 2026-05-07 13:55 | 33.82124 | 35.49492 | 16 ft | 12 kts | 116° |
| 2026-05-07 13:55 | 33.82144 | 35.49571 | 16 ft | 12 kts | 43° |
| 2026-05-07 13:55 | 33.82230 | 35.49645 | 17 ft | 18 kts | 35° |
| 2026-05-07 13:55 | 33.82348 | 35.49744 | 17 ft | 23 kts | 34° |
| 2026-05-07 13:56 | 33.82492 | 35.49866 | 16 ft | 28 kts | 35° |
| 2026-05-07 13:56 | 33.82641 | 35.49993 | 16 ft | 20 kts | 35° |
| 2026-05-07 13:56 | 33.82727 | 35.50066 | 17 ft | 8 kts | 35° |
| 2026-05-07 13:56 | 33.82770 | 35.50130 | 19 ft | 9 kts | 95° |
| 2026-05-07 13:57 | 33.82731 | 35.50204 | 33 ft | 12 kts | 123° |
| 2026-05-07 13:57 | 33.82689 | 35.50283 | 35 ft | 7 kts | 123° |
| 2026-05-07 13:57 | 33.82662 | 35.50285 | 33 ft | 3 kts | 210° |
| 2026-05-07 13:57 | 33.82659 | 35.50283 | 33 ft | 0 kts | 212° |
| 2026-05-07 13:59 | 33.82535 | 35.50187 | 34 ft | 63 kts | 214° |
| 2026-05-07 13:59 | 33.81909 | 35.49704 | 16 ft | 145 kts | 212° |
| 2026-05-07 13:59 | 33.80945 | 35.48966 | 474 ft | 175 kts | 214° |
| 2026-05-07 14:00 | 33.79906 | 35.48103 | 1224 ft | 191 kts | 224° |
| 2026-05-07 14:00 | 33.79197 | 35.46794 | 1680 ft | 192 kts | 257° |
| 2026-05-07 14:00 | 33.79049 | 35.45247 | 1625 ft | 183 kts | 270° |
| 2026-05-07 14:00 | 33.79205 | 35.43751 | 1749 ft | 179 kts | 296° |
| 2026-05-07 14:01 | 33.79997 | 35.42740 | 1763 ft | 163 kts | 341° |
| 2026-05-07 14:01 | 33.81086 | 35.42689 | 1686 ft | 158 kts | 14° |
| 2026-05-07 14:01 | 33.82093 | 35.43192 | 1593 ft | 158 kts | 28° |
| 2026-05-07 14:01 | 33.83091 | 35.43590 | 1580 ft | 154 kts | 5° |
| 2026-05-07 14:02 | 33.84174 | 35.43588 | 1563 ft | 157 kts | 359° |
| 2026-05-07 14:02 | 33.85254 | 35.43474 | 1592 ft | 157 kts | 357° |
| 2026-05-07 14:02 | 33.86357 | 35.43376 | 1566 ft | 159 kts | 356° |
| 2026-05-07 14:02 | 33.87461 | 35.43285 | 1525 ft | 158 kts | 357° |
| 2026-05-07 14:03 | 33.88543 | 35.43317 | 1471 ft | 160 kts | 15° |
| 2026-05-07 14:03 | 33.89396 | 35.44089 | 1295 ft | 154 kts | 56° |
| 2026-05-07 14:03 | 33.89614 | 35.45291 | 1159 ft | 142 kts | 83° |
| 2026-05-07 14:03 | 33.89576 | 35.46419 | 1113 ft | 132 kts | 94° |
| 2026-05-07 14:04 | 33.89219 | 35.47410 | 1059 ft | 132 kts | 125° |
| 2026-05-07 14:04 | 33.88449 | 35.48035 | 1004 ft | 135 kts | 158° |
| 2026-05-07 14:04 | 33.87521 | 35.48344 | 868 ft | 140 kts | 164° |
| 2026-05-07 14:04 | 33.86578 | 35.48532 | 634 ft | 137 kts | 179° |
| 2026-05-07 14:05 | 33.85634 | 35.48567 | 446 ft | 132 kts | 176° |
| 2026-05-07 14:05 | 33.84724 | 35.48637 | 235 ft | 130 kts | 177° |
| 2026-05-07 14:05 | 33.83828 | 35.48698 | 34 ft | 129 kts | 177° |
| 2026-05-07 14:05 | 33.82999 | 35.48752 | 7 ft | 109 kts | 177° |
| 2026-05-07 14:06 | 33.82119 | 35.48810 | 36 ft | 165 kts | 176° |
| 2026-05-07 14:06 | 33.80895 | 35.48908 | 808 ft | 181 kts | 174° |
| 2026-05-07 14:06 | 33.79586 | 35.48944 | 1207 ft | 192 kts | 192° |
| 2026-05-07 14:06 | 33.78466 | 35.48163 | 1477 ft | 187 kts | 231° |
| 2026-05-07 14:07 | 33.77940 | 35.46800 | 1531 ft | 177 kts | 264° |
| 2026-05-07 14:07 | 33.77978 | 35.45375 | 1618 ft | 168 kts | 298° |
| 2026-05-07 14:07 | 33.78622 | 35.44246 | 1621 ft | 163 kts | 320° |
| 2026-05-07 14:07 | 33.79542 | 35.43470 | 1598 ft | 161 kts | 341° |
| 2026-05-07 14:08 | 33.80614 | 35.43223 | 1591 ft | 155 kts | 1° |
| 2026-05-07 14:08 | 33.81701 | 35.43218 | 1573 ft | 156 kts | 359° |
| 2026-05-07 14:08 | 33.82789 | 35.43208 | 1515 ft | 155 kts | 358° |
| 2026-05-07 14:08 | 33.83867 | 35.43155 | 1495 ft | 156 kts | 359° |
| 2026-05-07 14:09 | 33.84942 | 35.43088 | 1524 ft | 157 kts | 359° |
| 2026-05-07 14:09 | 33.86031 | 35.43016 | 1541 ft | 158 kts | 358° |
| 2026-05-07 14:09 | 33.87135 | 35.42925 | 1443 ft | 157 kts | 356° |
| 2026-05-07 14:09 | 33.88216 | 35.42821 | 1514 ft | 150 kts | 360° |
| 2026-05-07 14:10 | 33.89140 | 35.43134 | 1434 ft | 134 kts | 37° |
| 2026-05-07 14:10 | 33.89540 | 35.44086 | 1320 ft | 128 kts | 76° |
| 2026-05-07 14:10 | 33.89631 | 35.45149 | 1229 ft | 128 kts | 81° |
| 2026-05-07 14:10 | 33.89647 | 35.46191 | 1157 ft | 123 kts | 83° |
| 2026-05-07 14:11 | 33.89415 | 35.47197 | 1076 ft | 130 kts | 117° |
| 2026-05-07 14:11 | 33.88701 | 35.47896 | 1037 ft | 136 kts | 150° |
| 2026-05-07 14:11 | 33.87776 | 35.48205 | 949 ft | 141 kts | 173° |
| 2026-05-07 14:11 | 33.86815 | 35.48399 | 804 ft | 139 kts | 164° |
| 2026-05-07 14:12 | 33.85874 | 35.48566 | 561 ft | 136 kts | 178° |
| 2026-05-07 14:12 | 33.84950 | 35.48619 | 301 ft | 131 kts | 176° |
| 2026-05-07 14:12 | 33.84051 | 35.48680 | 75 ft | 128 kts | 176° |
| 2026-05-07 14:12 | 33.83187 | 35.48740 | 4 ft | 114 kts | 177° |
| 2026-05-07 14:13 | 33.82363 | 35.48793 | 8 ft | 153 kts | 177° |
| 2026-05-07 14:13 | 33.81162 | 35.48880 | 748 ft | 174 kts | 176° |
| 2026-05-07 14:13 | 33.79907 | 35.48864 | 1084 ft | 182 kts | 198° |
| 2026-05-07 14:13 | 33.78916 | 35.47977 | 1336 ft | 179 kts | 241° |
| 2026-05-07 14:14 | 33.78581 | 35.46567 | 1470 ft | 175 kts | 269° |
| 2026-05-07 14:14 | 33.78518 | 35.45131 | 1506 ft | 172 kts | 280° |
| 2026-05-07 14:14 | 33.79016 | 35.43931 | 1504 ft | 159 kts | 327° |
| 2026-05-07 14:14 | 33.80035 | 35.43528 | 1534 ft | 157 kts | 358° |
| 2026-05-07 14:15 | 33.81117 | 35.43411 | 1513 ft | 156 kts | 355° |
| 2026-05-07 14:15 | 33.82205 | 35.43348 | 1511 ft | 156 kts | 358° |
| 2026-05-07 14:15 | 33.83289 | 35.43279 | 1525 ft | 156 kts | 358° |
| 2026-05-07 14:15 | 33.84367 | 35.43212 | 1538 ft | 156 kts | 359° |
| 2026-05-07 14:16 | 33.85450 | 35.43146 | 1517 ft | 156 kts | 358° |
| 2026-05-07 14:16 | 33.86524 | 35.43081 | 1490 ft | 157 kts | 358° |
| 2026-05-07 14:16 | 33.87619 | 35.43000 | 1490 ft | 158 kts | 357° |
| 2026-05-07 14:16 | 33.88670 | 35.43103 | 1485 ft | 147 kts | 25° |
| 2026-05-07 14:17 | 33.89276 | 35.43985 | 1400 ft | 136 kts | 70° |
| 2026-05-07 14:17 | 33.89358 | 35.45079 | 1290 ft | 128 kts | 84° |
| 2026-05-07 14:17 | 33.89351 | 35.46129 | 1280 ft | 124 kts | 83° |
| 2026-05-07 14:17 | 33.89261 | 35.47152 | 1169 ft | 125 kts | 100° |
| 2026-05-07 14:18 | 33.88706 | 35.47978 | 1089 ft | 132 kts | 142° |
| 2026-05-07 14:18 | 33.87823 | 35.48360 | 923 ft | 137 kts | 164° |
| 2026-05-07 14:18 | 33.86889 | 35.48452 | 741 ft | 136 kts | 174° |
| 2026-05-07 14:18 | 33.85944 | 35.48542 | 570 ft | 133 kts | 176° |
| 2026-05-07 14:19 | 33.85043 | 35.48615 | 309 ft | 130 kts | 176° |
| 2026-05-07 14:19 | 33.84151 | 35.48674 | 101 ft | 128 kts | 176° |
| 2026-05-07 14:19 | 33.83284 | 35.48733 | 4 ft | 115 kts | 177° |
| 2026-05-07 14:19 | 33.82508 | 35.48782 | 7 ft | 131 kts | 176° |
| 2026-05-07 14:20 | 33.81365 | 35.48863 | 492 ft | 177 kts | 176° |
| 2026-05-07 14:20 | 33.80115 | 35.48952 | 1064 ft | 182 kts | 180° |
| 2026-05-07 14:20 | 33.78943 | 35.48415 | 1398 ft | 184 kts | 226° |
| 2026-05-07 14:20 | 33.78364 | 35.47103 | 1525 ft | 177 kts | 263° |
| 2026-05-07 14:21 | 33.78202 | 35.45651 | 1549 ft | 173 kts | 270° |
| 2026-05-07 14:21 | 33.78286 | 35.44232 | 1502 ft | 165 kts | 300° |
| 2026-05-07 14:21 | 33.79022 | 35.43240 | 1516 ft | 160 kts | 334° |
| 2026-05-07 14:21 | 33.80092 | 35.42938 | 1527 ft | 157 kts | 358° |
| 2026-05-07 14:22 | 33.81171 | 35.43016 | 1485 ft | 156 kts | 11° |
| 2026-05-07 14:22 | 33.82226 | 35.43291 | 1454 ft | 155 kts | 12° |
| 2026-05-07 14:22 | 33.83282 | 35.43426 | 1467 ft | 153 kts | 358° |
| 2026-05-07 14:22 | 33.84348 | 35.43384 | 1499 ft | 156 kts | 359° |
| 2026-05-07 14:23 | 33.85437 | 35.43327 | 1539 ft | 157 kts | 359° |
| 2026-05-07 14:23 | 33.86537 | 35.43300 | 1517 ft | 159 kts | 359° |
| 2026-05-07 14:23 | 33.87595 | 35.43227 | 1511 ft | 145 kts | 357° |
| 2026-05-07 14:23 | 33.88525 | 35.43324 | 1481 ft | 128 kts | 25° |
| 2026-05-07 14:24 | 33.89006 | 35.44155 | 1384 ft | 126 kts | 77° |
| 2026-05-07 14:24 | 33.89093 | 35.45186 | 1349 ft | 121 kts | 79° |
| 2026-05-07 14:24 | 33.89123 | 35.46212 | 1299 ft | 122 kts | 81° |
| 2026-05-07 14:24 | 33.89107 | 35.47227 | 1217 ft | 122 kts | 89° |
| 2026-05-07 14:25 | 33.88690 | 35.48123 | 1098 ft | 130 kts | 140° |
| 2026-05-07 14:25 | 33.87807 | 35.48467 | 912 ft | 136 kts | 173° |
| 2026-05-07 14:25 | 33.86869 | 35.48485 | 718 ft | 134 kts | 178° |
| 2026-05-07 14:25 | 33.85937 | 35.48530 | 530 ft | 134 kts | 176° |
| 2026-05-07 14:26 | 33.85031 | 35.48607 | 315 ft | 129 kts | 176° |
| 2026-05-07 14:26 | 33.84127 | 35.48678 | 104 ft | 130 kts | 177° |
| 2026-05-07 14:26 | 33.83248 | 35.48736 | 5 ft | 117 kts | 177° |
| 2026-05-07 14:26 | 33.82375 | 35.48791 | 9 ft | 160 kts | 176° |
| 2026-05-07 14:27 | 33.81135 | 35.48876 | 838 ft | 189 kts | 176° |
| 2026-05-07 14:27 | 33.79796 | 35.48894 | 1266 ft | 191 kts | 188° |
| 2026-05-07 14:27 | 33.78669 | 35.48154 | 1505 ft | 186 kts | 231° |
| 2026-05-07 14:27 | 33.78163 | 35.46801 | 1548 ft | 175 kts | 266° |
| 2026-05-07 14:28 | 33.78008 | 35.45368 | 1532 ft | 173 kts | 268° |
| 2026-05-07 14:28 | 33.77897 | 35.43919 | 1528 ft | 173 kts | 276° |
| 2026-05-07 14:28 | 33.78349 | 35.42693 | 1524 ft | 157 kts | 325° |
| 2026-05-07 14:28 | 33.79344 | 35.42293 | 1519 ft | 152 kts | 1° |
| 2026-05-07 14:29 | 33.80387 | 35.42568 | 1507 ft | 157 kts | 20° |
| 2026-05-07 14:29 | 33.81423 | 35.42864 | 1474 ft | 155 kts | 8° |
| 2026-05-07 14:29 | 33.82478 | 35.43110 | 1476 ft | 153 kts | 14° |
| 2026-05-07 14:29 | 33.83515 | 35.43421 | 1512 ft | 155 kts | 7° |
| 2026-05-07 14:30 | 33.84598 | 35.43448 | 1534 ft | 157 kts | 358° |
| 2026-05-07 14:30 | 33.85690 | 35.43391 | 1551 ft | 157 kts | 358° |
| 2026-05-07 14:30 | 33.86782 | 35.43299 | 1512 ft | 157 kts | 355° |
| 2026-05-07 14:30 | 33.87860 | 35.43180 | 1528 ft | 149 kts | 357° |
| 2026-05-07 14:31 | 33.88811 | 35.43286 | 1511 ft | 132 kts | 28° |
| 2026-05-07 14:31 | 33.89288 | 35.44159 | 1351 ft | 130 kts | 80° |
| 2026-05-07 14:31 | 33.89242 | 35.45215 | 1279 ft | 124 kts | 86° |
| 2026-05-07 14:31 | 33.89196 | 35.46241 | 1237 ft | 122 kts | 87° |
| 2026-05-07 14:32 | 33.89138 | 35.47259 | 1109 ft | 123 kts | 91° |
| 2026-05-07 14:32 | 33.88707 | 35.48143 | 1018 ft | 132 kts | 137° |
| 2026-05-07 14:32 | 33.87820 | 35.48461 | 799 ft | 136 kts | 174° |
| 2026-05-07 14:32 | 33.86876 | 35.48473 | 632 ft | 135 kts | 180° |
| 2026-05-07 14:33 | 33.85946 | 35.48534 | 546 ft | 133 kts | 176° |
| 2026-05-07 14:33 | 33.85009 | 35.48610 | 517 ft | 146 kts | 176° |
| 2026-05-07 14:33 | 33.84007 | 35.48692 | 1305 ft | 142 kts | 178° |
| 2026-05-07 14:33 | 33.82986 | 35.48293 | 1629 ft | 172 kts | 223° |
| 2026-05-07 14:34 | 33.82220 | 35.47096 | 2009 ft | 188 kts | 243° |
| 2026-05-07 14:34 | 33.81612 | 35.45692 | 2372 ft | 189 kts | 252° |
| 2026-05-07 14:34 | 33.81199 | 35.44191 | 2741 ft | 188 kts | 261° |
| 2026-05-07 14:34 | 33.81029 | 35.43143 | 2921 ft | 207 kts | 261° |
| 2026-05-07 14:35 | 33.80823 | 35.41389 | 2938 ft | 214 kts | 265° |
| 2026-05-07 14:35 | 33.80616 | 35.39612 | 2945 ft | 215 kts | 265° |
| 2026-05-07 14:35 | 33.80402 | 35.37825 | 2938 ft | 216 kts | 266° |
| 2026-05-07 14:35 | 33.80130 | 35.36051 | 2942 ft | 218 kts | 253° |
| 2026-05-07 14:36 | 33.79262 | 35.33785 | 2945 ft | 220 kts | 245° |
| 2026-05-07 14:36 | 33.78797 | 35.32707 | 2945 ft | 210 kts | 245° |
| 2026-05-07 14:36 | 33.78056 | 35.31220 | 2963 ft | 214 kts | 235° |
| 2026-05-07 14:36 | 33.76937 | 35.29985 | 2959 ft | 224 kts | 218° |
| 2026-05-07 14:37 | 33.75602 | 35.28853 | 2949 ft | 240 kts | 216° |
| 2026-05-07 14:37 | 33.72766 | 35.26569 | 2945 ft | 253 kts | 215° |
| 2026-05-07 14:37 | 33.71319 | 35.25407 | 2955 ft | 253 kts | 215° |
| 2026-05-07 14:38 | 33.69854 | 35.24215 | 2941 ft | 257 kts | 214° |
| 2026-05-07 14:38 | 33.68246 | 35.23402 | 2944 ft | 245 kts | 187° |
| 2026-05-07 14:38 | 33.67960 | 35.23367 | 2941 ft | 242 kts | 181° |
| 2026-05-07 14:38 | 33.66579 | 35.23628 | 2939 ft | 229 kts | 160° |
| 2026-05-07 14:39 | 33.65088 | 35.24267 | 2948 ft | 226 kts | 156° |
| 2026-05-07 14:39 | 33.63685 | 35.25092 | 2953 ft | 227 kts | 136° |
| 2026-05-07 14:39 | 33.62677 | 35.26595 | 2951 ft | 235 kts | 118° |
| 2026-05-07 14:39 | 33.61859 | 35.28284 | 2942 ft | 232 kts | 116° |
| 2026-05-07 14:40 | 33.61105 | 35.29913 | 2944 ft | 215 kts | 115° |
| 2026-05-07 14:40 | 33.60725 | 35.31523 | 2953 ft | 192 kts | 91° |
| 2026-05-07 14:40 | 33.60800 | 35.33081 | 2941 ft | 185 kts | 71° |
| 2026-05-07 14:40 | 33.61542 | 35.34223 | 2943 ft | 175 kts | 24° |
| 2026-05-07 14:41 | 33.62663 | 35.34809 | 2939 ft | 177 kts | 30° |
| 2026-05-07 14:41 | 33.63699 | 35.35623 | 2948 ft | 180 kts | 31° |
| 2026-05-07 14:41 | 33.64750 | 35.36447 | 2954 ft | 181 kts | 31° |
| 2026-05-07 14:41 | 33.65800 | 35.37263 | 2956 ft | 178 kts | 31° |
| 2026-05-07 14:42 | 33.66795 | 35.38032 | 2957 ft | 164 kts | 31° |
| 2026-05-07 14:42 | 33.67732 | 35.38755 | 2879 ft | 157 kts | 31° |
| 2026-05-07 14:42 | 33.68633 | 35.39449 | 2720 ft | 156 kts | 30° |
| 2026-05-07 14:42 | 33.69544 | 35.40150 | 2531 ft | 155 kts | 31° |
| 2026-05-07 14:43 | 33.70404 | 35.40815 | 2344 ft | 139 kts | 30° |
| 2026-05-07 14:43 | 33.71174 | 35.41408 | 2195 ft | 130 kts | 29° |
| 2026-05-07 14:43 | 33.71954 | 35.42006 | 2008 ft | 133 kts | 30° |
| 2026-05-07 14:43 | 33.72722 | 35.42601 | 1818 ft | 125 kts | 29° |
| 2026-05-07 14:44 | 33.73414 | 35.43138 | 1639 ft | 115 kts | 31° |
| 2026-05-07 14:44 | 33.74077 | 35.43647 | 1495 ft | 111 kts | 28° |
| 2026-05-07 14:44 | 33.74736 | 35.44154 | 1351 ft | 111 kts | 29° |
| 2026-05-07 14:44 | 33.75387 | 35.44662 | 1221 ft | 110 kts | 28° |
| 2026-05-07 14:45 | 33.76037 | 35.45166 | 1055 ft | 112 kts | 28° |
| 2026-05-07 14:45 | 33.76694 | 35.45673 | 897 ft | 112 kts | 28° |
| 2026-05-07 14:45 | 33.77360 | 35.46183 | 726 ft | 116 kts | 28° |
| 2026-05-07 14:45 | 33.78052 | 35.46715 | 595 ft | 119 kts | 30° |
| 2026-05-07 14:46 | 33.78739 | 35.47258 | 430 ft | 119 kts | 32° |
| 2026-05-07 14:46 | 33.79427 | 35.47793 | 240 ft | 116 kts | 30° |
| 2026-05-07 14:46 | 33.80102 | 35.48310 | 81 ft | 114 kts | 29° |
| 2026-05-07 14:46 | 33.80740 | 35.48800 | 17 ft | 91 kts | 33° |
| 2026-05-07 14:47 | 33.81152 | 35.49120 | 13 ft | 60 kts | 32° |
| 2026-05-07 14:47 | 33.81464 | 35.49360 | 18 ft | 47 kts | 33° |
| 2026-05-07 14:47 | 33.81702 | 35.49539 | 17 ft | 34 kts | 27° |
| 2026-05-07 14:47 | 33.81894 | 35.49594 | 16 ft | 21 kts | 2° |
| 2026-05-07 14:48 | 33.82027 | 35.49603 | 16 ft | 19 kts | 3° |
| 2026-05-07 14:48 | 33.82124 | 35.49609 | 16 ft | 16 kts | 2° |
| 2026-05-07 14:48 | 33.82216 | 35.49568 | 16 ft | 13 kts | 306° |
| 2026-05-07 14:48 | 33.82252 | 35.49494 | 17 ft | 11 kts | 278° |
| 2026-05-07 14:49 | 33.82205 | 35.49424 | 16 ft | 11 kts | 214° |
| 2026-05-07 14:49 | 33.82177 | 35.49354 | 18 ft | 12 kts | 281° |
| 2026-05-07 14:49 | 33.82198 | 35.49260 | 16 ft | 12 kts | 285° |
| 2026-05-07 14:49 | 33.82241 | 35.49225 | 16 ft | 9 kts | 9° |
| 2026-05-07 14:50 | 33.82306 | 35.49245 | 16 ft | 9 kts | 15° |
| 2026-05-07 14:50 | 33.82378 | 35.49269 | 16 ft | 10 kts | 15° |
| 2026-05-07 14:50 | 33.82426 | 35.49274 | 16 ft | 7 kts | 336° |
| 2026-05-07 14:50 | 33.82439 | 35.49239 | 16 ft | 5 kts | 283° |
| 2026-05-07 14:51 | 33.82444 | 35.49217 | 16 ft | 2 kts | 284° |
| 2026-05-07 14:51 | 33.82444 | 35.49216 | 16 ft | 0 kts | 284° |